createdAt,value
2022-11-01T00:01:53.229Z,13.70
2022-11-01T00:04:20.389Z,13.60
2022-11-01T00:06:49.053Z,13.50
2022-11-01T00:09:16.272Z,13.40
2022-11-01T00:11:43.419Z,13.30
2022-11-01T00:14:14.617Z,13.20
2022-11-01T00:16:41.652Z,13.00
2022-11-01T00:19:08.495Z,13.00
2022-11-01T00:21:35.466Z,12.90
2022-11-01T00:24:02.316Z,12.90
2022-11-01T00:26:29.276Z,12.80
2022-11-01T00:28:56.186Z,12.80
2022-11-01T00:31:23.208Z,12.80
2022-11-01T00:33:50.120Z,12.80
2022-11-01T00:36:16.963Z,12.80
2022-11-01T00:38:43.822Z,12.80
2022-11-01T00:41:10.801Z,12.90
2022-11-01T00:43:37.633Z,12.90
2022-11-01T00:46:04.760Z,12.90
2022-11-01T00:48:31.922Z,13.00
2022-11-01T00:50:58.753Z,13.00
2022-11-01T00:53:25.611Z,13.00
2022-11-01T00:55:52.645Z,12.90
2022-11-01T00:58:19.530Z,12.80
2022-11-01T01:00:47.708Z,12.80
2022-11-01T01:03:14.560Z,12.80
2022-11-01T01:05:41.402Z,12.70
2022-11-01T01:08:08.226Z,12.70
2022-11-01T01:10:35.266Z,12.60
2022-11-01T01:13:02.529Z,12.50
2022-11-01T01:15:29.510Z,12.50
2022-11-01T01:17:56.380Z,12.40
2022-11-01T01:20:23.270Z,12.40
2022-11-01T01:22:50.183Z,12.40
2022-11-01T01:25:17.506Z,12.30
2022-11-01T01:27:44.355Z,12.30
2022-11-01T01:30:11.574Z,12.30
2022-11-01T01:32:38.495Z,12.30
2022-11-01T01:35:06.157Z,12.30
2022-11-01T01:37:35.788Z,12.30
2022-11-01T01:40:02.621Z,12.30
2022-11-01T01:42:40.497Z,12.30
2022-11-01T01:45:11.783Z,12.30
2022-11-01T01:47:40.405Z,12.20
2022-11-01T01:50:08.808Z,12.20
2022-11-01T01:52:43.625Z,12.20
2022-11-01T01:55:10.521Z,12.20
2022-11-01T01:57:37.356Z,12.20
2022-11-01T02:00:05.452Z,12.20
2022-11-01T02:02:38.172Z,12.10
2022-11-01T02:05:12.694Z,12.20
2022-11-01T02:07:39.611Z,12.30
2022-11-01T02:10:06.959Z,12.40
2022-11-01T02:12:35.516Z,12.40
2022-11-01T02:15:03.857Z,12.50
2022-11-01T02:17:56.659Z,12.60
2022-11-01T02:20:50.875Z,12.60
2022-11-01T02:23:23.772Z,12.70
2022-11-01T02:26:09.304Z,12.80
2022-11-01T02:28:59.391Z,12.80
2022-11-01T02:31:41.424Z,12.80
2022-11-01T02:34:19.224Z,12.80
2022-11-01T02:36:55.508Z,12.80
2022-11-01T02:39:33.293Z,12.80
2022-11-01T02:42:36.930Z,12.90
2022-11-01T02:45:09.041Z,13.00
2022-11-01T02:47:35.917Z,13.10
2022-11-01T02:50:05.365Z,13.10
2022-11-01T02:52:33.221Z,13.20
2022-11-01T02:55:01.349Z,13.20
2022-11-01T02:57:39.273Z,13.10
2022-11-01T03:00:28.362Z,13.00
2022-11-01T03:03:05.768Z,12.90
2022-11-01T03:05:47.217Z,12.70
2022-11-01T03:08:17.084Z,12.60
2022-11-01T03:10:53.278Z,12.40
2022-11-01T03:13:29.219Z,12.30
2022-11-01T03:16:26.165Z,12.20
2022-11-01T03:19:31.190Z,12.10
2022-11-01T03:22:06.350Z,11.90
2022-11-01T03:24:37.675Z,11.80
2022-11-01T03:27:08.862Z,11.70
2022-11-01T03:29:36.457Z,11.60
2022-11-01T03:32:03.333Z,11.40
2022-11-01T03:34:30.209Z,11.30
2022-11-01T03:36:59.718Z,11.20
2022-11-01T03:39:29.902Z,11.20
2022-11-01T03:42:02.613Z,11.10
2022-11-01T03:44:43.919Z,11.00
2022-11-01T03:47:10.887Z,11.00
2022-11-01T03:49:37.753Z,10.90
2022-11-01T03:52:04.653Z,10.90
2022-11-01T03:54:31.507Z,10.90
2022-11-01T03:56:58.359Z,10.80
2022-11-01T03:59:28.559Z,10.80
2022-11-01T04:01:55.517Z,10.90
2022-11-01T04:04:22.603Z,10.90
2022-11-01T04:06:50.391Z,10.90
2022-11-01T04:09:17.255Z,11.00
2022-11-01T04:11:44.025Z,11.00
2022-11-01T04:14:29.743Z,11.10
2022-11-01T04:17:22.444Z,11.10
2022-11-01T04:20:11.421Z,11.20
2022-11-01T04:22:38.237Z,11.30
2022-11-01T04:25:05.366Z,11.30
2022-11-01T04:27:32.179Z,11.30
2022-11-01T04:29:59.080Z,11.30
2022-11-01T04:32:28.286Z,11.30
2022-11-01T04:34:55.310Z,11.30
2022-11-01T04:37:22.181Z,11.40
2022-11-01T04:39:49.011Z,11.40
2022-11-01T04:42:15.804Z,11.50
2022-11-01T04:44:42.716Z,11.50
2022-11-01T04:47:09.542Z,11.60
2022-11-01T04:49:39.350Z,11.60
2022-11-01T04:52:06.193Z,11.60
2022-11-01T04:54:33.597Z,11.70
2022-11-01T04:57:00.575Z,11.80
2022-11-01T04:59:27.379Z,11.80
2022-11-01T05:01:54.278Z,11.90
2022-11-01T05:04:21.135Z,12.00
2022-11-01T05:06:47.914Z,12.00
2022-11-01T05:09:14.700Z,12.10
2022-11-01T05:11:41.468Z,12.10
2022-11-01T05:14:08.939Z,12.20
2022-11-01T05:16:35.736Z,12.20
2022-11-01T05:19:02.521Z,12.20
2022-11-01T05:21:29.303Z,12.20
2022-11-01T05:23:56.157Z,12.30
2022-11-01T05:26:22.934Z,12.30
2022-11-01T05:28:49.767Z,12.30
2022-11-01T05:31:16.730Z,12.30
2022-11-01T05:33:43.601Z,12.30
2022-11-01T05:36:10.485Z,12.30
2022-11-01T05:38:37.337Z,12.40
2022-11-01T05:41:04.371Z,12.40
2022-11-01T05:43:31.273Z,12.40
2022-11-01T05:45:58.105Z,12.40
2022-11-01T05:48:24.945Z,12.40
2022-11-01T05:50:51.693Z,12.40
2022-11-01T05:53:18.502Z,12.40
2022-11-01T05:55:45.311Z,12.50
2022-11-01T05:58:12.088Z,12.50
2022-11-01T06:00:39.106Z,12.60
2022-11-01T06:03:06.504Z,12.60
2022-11-01T06:05:33.782Z,12.80
2022-11-01T06:08:01.125Z,12.90
2022-11-01T06:10:28.380Z,12.90
2022-11-01T06:12:55.503Z,12.90
2022-11-01T06:15:22.410Z,12.90
2022-11-01T06:17:49.227Z,13.00
2022-11-01T06:20:16.104Z,13.00
2022-11-01T06:22:43.009Z,13.00
2022-11-01T06:25:09.978Z,13.10
2022-11-01T06:27:36.843Z,13.10
2022-11-01T06:30:04.194Z,13.10
2022-11-01T06:32:31.007Z,13.10
2022-11-01T06:34:57.859Z,13.10
2022-11-01T06:37:24.731Z,13.10
2022-11-01T06:39:51.537Z,13.10
2022-11-01T06:42:18.478Z,13.20
2022-11-01T06:44:45.333Z,13.20
2022-11-01T06:47:12.719Z,13.20
2022-11-01T06:49:39.804Z,13.20
2022-11-01T06:52:06.877Z,13.30
2022-11-01T06:54:33.714Z,13.20
2022-11-01T06:57:00.555Z,13.30
2022-11-01T06:59:27.512Z,13.40
2022-11-01T07:01:54.582Z,13.40
2022-11-01T07:04:21.735Z,13.50
2022-11-01T07:06:48.807Z,13.60
2022-11-01T07:09:15.793Z,13.70
2022-11-01T07:11:42.619Z,13.70
2022-11-01T07:14:09.658Z,13.80
2022-11-01T07:16:36.504Z,13.80
2022-11-01T07:19:03.320Z,13.80
2022-11-01T07:21:30.291Z,13.90
2022-11-01T07:23:57.131Z,14.00
2022-11-01T07:26:23.977Z,14.00
2022-11-01T07:28:50.894Z,14.00
2022-11-01T07:31:17.718Z,14.10
2022-11-01T07:33:44.988Z,14.00
2022-11-01T07:36:11.960Z,14.10
2022-11-01T07:38:39.225Z,14.10
2022-11-01T07:41:06.658Z,14.20
2022-11-01T07:43:35.748Z,14.30
2022-11-01T07:46:05.662Z,14.30
2022-11-01T07:48:32.536Z,14.30
2022-11-01T07:50:59.936Z,14.40
2022-11-01T07:53:27.062Z,14.40
2022-11-01T07:55:53.902Z,14.40
2022-11-01T07:58:20.783Z,14.50
2022-11-01T08:00:48.054Z,14.60
2022-11-01T08:03:16.862Z,14.60
2022-11-01T08:05:44.318Z,14.70
2022-11-01T08:08:11.182Z,14.80
2022-11-01T08:10:38.181Z,14.90
2022-11-01T08:13:17.686Z,14.90
2022-11-01T08:15:45.141Z,15.00
2022-11-01T08:18:12.046Z,15.00
2022-11-01T08:20:38.931Z,15.00
2022-11-01T08:23:06.123Z,15.00
2022-11-01T08:25:33.294Z,15.00
2022-11-01T08:28:04.488Z,15.10
2022-11-01T08:30:31.405Z,15.10
2022-11-01T08:33:02.109Z,15.00
2022-11-01T08:35:29.495Z,15.00
2022-11-01T08:37:56.379Z,15.00
2022-11-01T08:40:23.321Z,15.00
2022-11-01T08:42:50.300Z,15.10
2022-11-01T08:45:17.371Z,15.20
2022-11-01T08:47:44.405Z,15.20
2022-11-01T08:50:12.461Z,15.30
2022-11-01T08:52:40.270Z,15.20
2022-11-01T08:55:08.189Z,15.10
2022-11-01T08:57:34.997Z,15.00
2022-11-01T09:00:02.198Z,14.90
2022-11-01T09:02:29.163Z,14.90
2022-11-01T09:04:56.023Z,14.90
2022-11-01T09:07:23.115Z,14.90
2022-11-01T09:09:50.155Z,14.90
2022-11-01T09:12:23.438Z,15.00
2022-11-01T09:14:51.494Z,15.00
2022-11-01T09:17:18.397Z,15.00
2022-11-01T09:19:45.860Z,15.00
2022-11-01T09:22:12.995Z,15.00
2022-11-01T09:24:40.199Z,15.10
2022-11-01T09:27:08.910Z,14.90
2022-11-01T09:29:35.969Z,14.70
2022-11-01T09:32:02.953Z,14.60
2022-11-01T09:34:29.765Z,14.40
2022-11-01T09:36:56.661Z,14.30
2022-11-01T09:39:24.032Z,14.30
2022-11-01T09:42:01.409Z,14.30
2022-11-01T09:44:36.693Z,14.40
2022-11-01T09:47:08.285Z,14.40
2022-11-01T09:49:39.438Z,14.50
2022-11-01T09:52:06.452Z,14.50
2022-11-01T09:54:33.321Z,14.50
2022-11-01T09:57:18.578Z,14.40
2022-11-01T10:00:01.546Z,14.40
2022-11-01T10:02:50.311Z,14.40
2022-11-01T10:05:26.583Z,14.30
2022-11-01T10:08:03.153Z,14.30
2022-11-01T10:10:35.663Z,14.30
2022-11-01T10:13:32.336Z,14.30
2022-11-01T10:16:35.121Z,14.30
2022-11-01T10:19:11.467Z,14.20
2022-11-01T10:21:49.979Z,14.20
2022-11-01T10:24:22.713Z,14.10
2022-11-01T10:26:53.861Z,14.10
2022-11-01T10:29:41.146Z,14.10
2022-11-01T10:32:35.206Z,14.10
2022-11-01T10:35:26.231Z,14.10
2022-11-01T10:38:32.243Z,14.10
2022-11-01T10:41:09.850Z,14.10
2022-11-01T10:43:51.036Z,14.30
2022-11-01T10:46:23.244Z,14.40
2022-11-01T10:48:59.228Z,14.70
2022-11-01T10:51:28.064Z,14.90
2022-11-01T10:53:57.549Z,15.10
2022-11-01T10:56:44.965Z,15.10
2022-11-01T10:59:34.976Z,14.90
2022-11-01T11:02:03.131Z,15.00
2022-11-01T11:04:30.091Z,15.20
2022-11-01T11:06:57.454Z,15.50
2022-11-01T11:09:36.492Z,15.70
2022-11-01T11:12:20.121Z,15.90
2022-11-01T11:14:48.950Z,16.20
2022-11-01T11:17:37.567Z,16.30
2022-11-01T11:20:06.580Z,16.60
2022-11-01T11:22:40.025Z,16.70
2022-11-01T11:25:12.866Z,16.80
2022-11-01T11:27:44.073Z,17.00
2022-11-01T11:30:13.941Z,17.20
2022-11-01T11:32:47.937Z,17.40
2022-11-01T11:35:14.849Z,17.60
2022-11-01T11:37:50.377Z,17.90
2022-11-01T11:40:17.431Z,18.10
2022-11-01T11:42:46.365Z,18.00
2022-11-01T11:45:27.897Z,17.60
2022-11-01T11:47:55.927Z,17.20
2022-11-01T11:50:26.505Z,16.80
2022-11-01T11:53:18.974Z,16.70
2022-11-01T11:56:01.486Z,16.60
2022-11-01T11:58:45.103Z,16.70
2022-11-01T12:01:20.585Z,17.20
2022-11-01T12:03:48.507Z,17.80
2022-11-01T12:06:20.902Z,18.20
2022-11-01T12:08:55.485Z,18.50
2022-11-01T12:11:23.099Z,18.70
2022-11-01T12:14:31.378Z,19.00
2022-11-01T12:16:58.190Z,19.20
2022-11-01T12:19:29.472Z,19.50
2022-11-01T12:22:02.026Z,19.60
2022-11-01T12:24:46.469Z,19.80
2022-11-01T12:27:15.586Z,20.00
2022-11-01T12:29:50.647Z,19.90
2022-11-01T12:32:45.035Z,19.40
2022-11-01T12:35:25.168Z,18.80
2022-11-01T12:38:17.493Z,18.10
2022-11-01T12:40:45.228Z,17.30
2022-11-01T12:43:20.348Z,16.70
2022-11-01T12:46:07.047Z,16.10
2022-11-01T12:48:36.310Z,15.60
2022-11-01T12:51:07.612Z,15.50
2022-11-01T12:53:42.976Z,15.70
2022-11-01T12:56:10.729Z,15.80
2022-11-01T12:58:38.577Z,15.70
2022-11-01T13:01:41.433Z,15.50
2022-11-01T13:04:30.354Z,15.20
2022-11-01T13:07:33.245Z,14.80
2022-11-01T13:10:28.545Z,14.30
2022-11-01T13:13:20.364Z,13.60
2022-11-01T13:16:22.405Z,13.20
2022-11-01T13:18:49.882Z,12.80
2022-11-01T13:21:50.017Z,12.60
2022-11-01T13:24:37.661Z,12.50
2022-11-01T13:27:06.984Z,12.50
2022-11-01T13:29:34.194Z,12.40
2022-11-01T13:32:04.133Z,12.40
2022-11-01T13:34:36.831Z,12.50
2022-11-01T13:37:05.646Z,12.50
2022-11-01T13:39:54.714Z,12.60
2022-11-01T13:42:28.477Z,12.70
2022-11-01T13:45:07.826Z,12.70
2022-11-01T13:48:10.545Z,12.60
2022-11-01T13:50:45.247Z,12.60
2022-11-01T13:53:21.343Z,12.70
2022-11-01T13:56:04.580Z,12.70
2022-11-01T13:58:33.332Z,12.80
2022-11-01T14:01:32.861Z,13.10
2022-11-01T14:04:18.906Z,13.70
2022-11-01T14:07:13.207Z,14.10
2022-11-01T14:09:54.401Z,14.10
2022-11-01T14:12:38.362Z,14.00
2022-11-01T14:15:20.809Z,13.90
2022-11-01T14:17:57.740Z,14.00
2022-11-01T14:20:26.715Z,14.00
2022-11-01T14:22:55.735Z,14.30
2022-11-01T14:25:22.996Z,14.70
2022-11-01T14:28:18.773Z,15.00
2022-11-01T14:30:47.374Z,15.60
2022-11-01T14:33:23.718Z,16.00
2022-11-01T14:35:55.526Z,16.30
2022-11-01T14:38:28.666Z,16.70
2022-11-01T14:40:56.770Z,16.90
2022-11-01T14:43:25.341Z,17.10
2022-11-01T14:45:57.504Z,17.20
2022-11-01T14:48:28.489Z,17.40
2022-11-01T14:51:25.254Z,17.50
2022-11-01T14:54:19.338Z,17.60
2022-11-01T14:56:49.889Z,17.80
2022-11-01T14:59:32.036Z,17.90
2022-11-01T15:02:03.045Z,18.00
2022-11-01T15:04:31.825Z,18.00
2022-11-01T15:07:00.133Z,17.70
2022-11-01T15:09:30.198Z,17.30
2022-11-01T15:12:22.129Z,17.00
2022-11-01T15:14:51.579Z,16.80
2022-11-01T15:17:34.551Z,16.50
2022-11-01T15:20:03.891Z,16.10
2022-11-01T15:22:32.058Z,15.70
2022-11-01T15:25:04.681Z,15.40
2022-11-01T15:27:40.030Z,15.10
2022-11-01T15:30:07.608Z,14.90
2022-11-01T15:32:34.797Z,14.70
2022-11-01T15:35:06.024Z,14.60
2022-11-01T15:37:33.612Z,14.60
2022-11-01T15:40:01.270Z,14.50
2022-11-01T15:42:33.760Z,14.40
2022-11-01T15:45:28.584Z,14.40
2022-11-01T15:47:56.256Z,14.30
2022-11-01T15:50:23.076Z,14.20
2022-11-01T15:52:50.075Z,14.20
2022-11-01T15:55:30.068Z,14.10
2022-11-01T15:58:22.202Z,14.10
2022-11-01T16:01:03.427Z,14.00
2022-11-01T16:04:02.871Z,13.90
2022-11-01T16:06:39.421Z,13.80
2022-11-01T16:09:25.753Z,13.80
2022-11-01T16:11:55.941Z,13.80
2022-11-01T16:14:32.453Z,13.80
2022-11-01T16:17:07.846Z,13.90
2022-11-01T16:19:51.934Z,13.90
2022-11-01T16:22:35.879Z,13.90
2022-11-01T16:25:11.451Z,13.80
2022-11-01T16:27:54.788Z,13.70
2022-11-01T16:30:45.452Z,13.70
2022-11-01T16:33:23.401Z,13.60
2022-11-01T16:35:57.830Z,13.60
2022-11-01T16:38:37.814Z,13.60
2022-11-01T16:41:22.954Z,13.60
2022-11-01T16:43:53.138Z,13.60
2022-11-01T16:46:20.569Z,13.60
2022-11-01T16:48:55.014Z,13.60
2022-11-01T16:51:24.830Z,13.70
2022-11-01T16:53:51.681Z,13.60
2022-11-01T16:56:41.367Z,13.70
2022-11-01T16:59:17.322Z,13.60
2022-11-01T17:01:45.477Z,13.50
2022-11-01T17:04:13.132Z,13.50
2022-11-01T17:06:42.262Z,13.50
2022-11-01T17:09:13.252Z,13.50
2022-11-01T17:11:40.730Z,13.60
2022-11-01T17:14:07.953Z,13.60
2022-11-01T17:16:34.876Z,13.70
2022-11-01T17:19:01.737Z,13.60
2022-11-01T17:21:30.712Z,13.70
2022-11-01T17:23:57.698Z,13.70
2022-11-01T17:26:24.642Z,13.70
2022-11-01T17:28:52.544Z,13.70
2022-11-01T17:31:19.628Z,13.70
2022-11-01T17:33:46.530Z,13.70
2022-11-01T17:36:14.376Z,13.70
2022-11-01T17:38:41.419Z,13.50
2022-11-01T17:41:09.349Z,13.30
2022-11-01T17:43:36.392Z,13.00
2022-11-01T17:46:03.359Z,12.70
2022-11-01T17:48:30.181Z,12.50
2022-11-01T17:51:00.913Z,12.20
2022-11-01T17:53:27.913Z,11.90
2022-11-01T17:55:57.845Z,11.70
2022-11-01T17:58:24.608Z,11.60
2022-11-01T18:00:51.517Z,11.50
2022-11-01T18:03:18.529Z,11.40
2022-11-01T18:05:45.425Z,11.30
2022-11-01T18:08:20.336Z,11.20
2022-11-01T18:11:06.056Z,11.20
2022-11-01T18:13:35.930Z,11.10
2022-11-01T18:16:08.399Z,11.10
2022-11-01T18:18:54.444Z,11.10
2022-11-01T18:21:30.722Z,11.20
2022-11-01T18:23:59.234Z,11.20
2022-11-01T18:26:29.477Z,11.20
2022-11-01T18:29:13.605Z,11.20
2022-11-01T18:31:42.045Z,11.20
2022-11-01T18:34:20.534Z,11.10
2022-11-01T18:36:58.184Z,11.10
2022-11-01T18:39:38.137Z,11.10
2022-11-01T18:42:11.140Z,11.10
2022-11-01T18:44:38.163Z,11.10
2022-11-01T18:47:24.723Z,11.10
2022-11-01T18:49:51.632Z,11.00
2022-11-01T18:52:19.230Z,11.00
2022-11-01T18:54:56.337Z,11.00
2022-11-01T18:57:24.632Z,10.90
2022-11-01T18:59:53.011Z,10.90
2022-11-01T19:02:22.106Z,10.90
2022-11-01T19:04:52.650Z,10.90
2022-11-01T19:07:31.829Z,10.90
2022-11-01T19:10:19.526Z,10.90
2022-11-01T19:12:54.454Z,10.90
2022-11-01T19:15:28.807Z,10.90
2022-11-01T19:18:07.516Z,10.90
2022-11-01T19:20:49.853Z,11.00
2022-11-01T19:23:31.951Z,11.00
2022-11-01T19:25:59.164Z,10.90
2022-11-01T19:28:37.535Z,10.90
2022-11-01T19:31:33.659Z,10.90
2022-11-01T19:34:05.706Z,10.90
2022-11-01T19:39:26.929Z,11.00
2022-11-01T19:42:29.643Z,11.10
2022-11-01T19:45:24.448Z,11.10
2022-11-01T19:47:51.242Z,11.20
2022-11-01T19:50:23.838Z,11.20
2022-11-01T19:52:51.489Z,11.30
2022-11-01T19:55:30.440Z,11.30
2022-11-01T19:57:57.289Z,11.30
2022-11-01T20:00:24.908Z,11.30
2022-11-01T20:02:53.339Z,11.10
2022-11-01T20:05:41.921Z,10.90
2022-11-01T20:08:25.825Z,10.80
2022-11-01T20:10:52.591Z,10.60
2022-11-01T20:13:21.700Z,10.50
2022-11-01T20:15:51.547Z,10.50
2022-11-01T20:18:18.397Z,10.40
2022-11-01T20:20:46.000Z,10.30
2022-11-01T20:23:25.724Z,10.30
2022-11-01T20:25:53.418Z,10.30
2022-11-01T20:28:26.226Z,10.30
2022-11-01T20:30:53.717Z,10.30
2022-11-01T20:33:20.502Z,10.30
2022-11-01T20:35:47.869Z,10.30
2022-11-01T20:38:14.826Z,10.30
2022-11-01T20:40:41.712Z,10.20
2022-11-01T20:43:09.781Z,10.10
2022-11-01T20:45:37.021Z,10.10
2022-11-01T20:48:04.173Z,10.10
2022-11-01T20:50:32.145Z,10.10
2022-11-01T20:52:59.139Z,10.10
2022-11-01T20:55:26.105Z,10.00
2022-11-01T20:57:52.893Z,10.00
2022-11-01T21:00:19.887Z,10.00
2022-11-01T21:02:47.021Z,10.00
2022-11-01T21:05:26.412Z,10.00
2022-11-01T21:08:00.939Z,10.00
2022-11-01T21:10:35.549Z,10.00
2022-11-01T21:13:04.510Z,10.10
2022-11-01T21:15:41.191Z,10.20
2022-11-01T21:18:08.026Z,10.40
2022-11-01T21:20:38.632Z,10.60
2022-11-01T21:23:20.572Z,10.60
2022-11-01T21:25:58.104Z,10.50
2022-11-01T21:28:42.228Z,10.40
2022-11-01T21:31:15.377Z,10.30
2022-11-01T21:33:44.007Z,10.20
2022-11-01T21:36:14.508Z,10.10
2022-11-01T21:38:41.487Z,10.00
2022-11-01T21:41:34.771Z,9.90
2022-11-01T21:44:18.307Z,9.90
2022-11-01T21:47:07.520Z,9.80
2022-11-01T21:49:34.447Z,9.80
2022-11-01T21:52:05.746Z,9.80
2022-11-01T21:54:36.842Z,9.70
2022-11-01T21:57:05.209Z,9.70
2022-11-01T21:59:32.161Z,9.70
2022-11-01T22:02:01.189Z,9.70
2022-11-01T22:04:30.063Z,9.80
2022-11-01T22:07:00.395Z,9.80
2022-11-01T22:09:27.395Z,9.90
2022-11-01T22:11:54.383Z,9.90
2022-11-01T22:14:21.361Z,9.90
2022-11-01T22:16:49.553Z,9.90
2022-11-01T22:19:16.395Z,9.90
2022-11-01T22:21:43.253Z,9.90
2022-11-01T22:24:10.227Z,9.90
2022-11-01T22:26:37.028Z,9.90
2022-11-01T22:29:05.155Z,9.90
2022-11-01T22:31:32.084Z,9.90
2022-11-01T22:33:59.013Z,9.90
2022-11-01T22:36:27.061Z,9.90
2022-11-01T22:38:58.741Z,10.00
2022-11-01T22:41:35.196Z,10.00
2022-11-01T22:44:06.365Z,10.00
2022-11-01T22:46:56.835Z,10.00
2022-11-01T22:49:40.597Z,10.00
2022-11-01T22:52:13.704Z,10.10
2022-11-01T22:54:45.352Z,10.10
2022-11-01T22:57:22.785Z,10.20
2022-11-01T22:59:52.008Z,10.20
2022-11-01T23:02:21.672Z,10.30
2022-11-01T23:04:49.522Z,10.40
2022-11-01T23:07:31.710Z,10.40
2022-11-01T23:10:07.129Z,10.60
2022-11-01T23:12:54.320Z,10.70
2022-11-01T23:15:28.009Z,10.70
2022-11-01T23:18:01.102Z,10.70
2022-11-01T23:20:29.736Z,10.70
2022-11-01T23:22:56.691Z,10.60
2022-11-01T23:25:23.609Z,10.60
2022-11-01T23:27:50.411Z,10.60
2022-11-01T23:30:17.346Z,10.60
2022-11-01T23:32:44.287Z,10.60
2022-11-01T23:35:19.157Z,10.60
2022-11-01T23:37:46.073Z,10.60
2022-11-01T23:40:17.386Z,10.60
2022-11-01T23:42:44.384Z,10.60
2022-11-01T23:45:33.984Z,10.60
2022-11-01T23:48:00.781Z,10.60
2022-11-01T23:50:30.325Z,10.60
2022-11-01T23:52:59.137Z,10.60
2022-11-01T23:55:39.086Z,10.50
2022-11-01T23:58:07.451Z,10.50
